createdAt,value
2019-05-07T00:01:29.006Z,4.78
2019-05-07T00:11:33.503Z,6.30
2019-05-07T00:21:38.009Z,7.13
2019-05-07T00:31:42.474Z,6.83
2019-05-07T00:41:49.485Z,7.07
2019-05-07T00:51:54.152Z,6.67
2019-05-07T01:01:58.760Z,7.33
2019-05-07T01:12:04.730Z,9.07
2019-05-07T01:22:09.188Z,8.37
2019-05-07T01:32:25.082Z,8.50
2019-05-07T01:42:29.525Z,10.87
2019-05-07T01:52:34.149Z,6.27
2019-05-07T02:02:58.648Z,5.40
2019-05-07T02:13:03.148Z,8.30
2019-05-07T02:23:07.762Z,8.13
2019-05-07T02:33:13.747Z,17.17
2019-05-07T02:43:18.641Z,20.90
2019-05-07T02:53:37.140Z,11.10
2019-05-07T03:03:44.961Z,10.77
2019-05-07T03:13:49.064Z,19.85
2019-05-07T03:24:13.828Z,22.70
2019-05-07T03:34:36.632Z,14.90
2019-05-07T03:44:47.677Z,12.07
2019-05-07T03:54:54.031Z,9.57
2019-05-07T04:04:58.294Z,11.50
2019-05-07T04:15:03.480Z,8.73
2019-05-07T04:25:13.101Z,10.25
2019-05-07T04:35:18.948Z,7.95
2019-05-07T04:45:23.571Z,8.43
2019-05-07T04:55:28.125Z,6.80
2019-05-07T05:05:33.195Z,5.97
2019-05-07T05:15:37.812Z,5.13
2019-05-07T05:25:43.735Z,8.33
2019-05-07T05:35:48.247Z,6.47
2019-05-07T05:45:54.477Z,7.10
2019-05-07T05:56:02.403Z,7.17
2019-05-07T06:06:24.974Z,5.63
2019-05-07T06:16:36.626Z,4.53
2019-05-07T06:26:42.478Z,6.17
2019-05-07T06:36:46.827Z,6.77
2019-05-07T06:46:52.795Z,8.90
2019-05-07T06:56:58.369Z,8.43
2019-05-07T07:07:27.256Z,5.10
2019-05-07T07:17:24.164Z,6.60
2019-05-07T07:27:29.185Z,5.90
2019-05-07T07:37:35.251Z,5.57
2019-05-07T07:47:44.545Z,5.13
2019-05-07T07:57:56.723Z,6.05
2019-05-07T08:08:02.323Z,7.60
2019-05-07T08:18:07.024Z,7.90
2019-05-07T08:28:11.986Z,8.20
2019-05-07T08:38:16.439Z,9.77
2019-05-07T08:48:22.517Z,8.17
2019-05-07T08:58:27.573Z,9.15
2019-05-07T09:08:32.159Z,9.50
2019-05-07T09:18:36.696Z,8.70
2019-05-07T09:28:46.007Z,7.33
2019-05-07T09:38:56.783Z,10.20
2019-05-07T09:48:56.667Z,8.43
2019-05-07T09:59:02.223Z,8.77
2019-05-07T10:09:07.232Z,10.00
2019-05-07T10:19:12.033Z,8.57
2019-05-07T10:29:17.487Z,8.13
2019-05-07T10:39:22.336Z,8.27
2019-05-07T10:49:28.599Z,8.57
2019-05-07T10:59:33.463Z,9.87
2019-05-07T11:09:38.059Z,13.00
2019-05-07T11:19:42.711Z,10.60
2019-05-07T11:29:47.225Z,14.17
2019-05-07T11:39:52.752Z,8.47
2019-05-07T11:50:16.260Z,10.50
2019-05-07T12:00:28.647Z,10.38
2019-05-07T12:10:33.219Z,8.70
2019-05-07T12:20:37.793Z,7.50
2019-05-07T12:30:51.753Z,13.13
2019-05-07T12:40:56.376Z,13.80
2019-05-07T12:51:01.954Z,12.03
2019-05-07T13:01:08.330Z,8.83
2019-05-07T13:11:13.287Z,6.90
2019-05-07T13:21:18.027Z,9.00
2019-05-07T13:31:23.312Z,11.13
2019-05-07T13:41:44.684Z,13.07
2019-05-07T13:52:02.525Z,13.73
2019-05-07T14:01:57.464Z,12.77
2019-05-07T14:12:02.198Z,16.63
2019-05-07T14:22:15.359Z,9.50
2019-05-07T14:32:20.811Z,10.70
2019-05-07T14:42:38.336Z,11.87
2019-05-07T14:52:43.394Z,11.97
2019-05-07T15:02:48.297Z,10.60
2019-05-07T15:12:52.928Z,9.37
2019-05-07T15:23:02.808Z,8.57
2019-05-07T15:33:09.810Z,11.90
2019-05-07T15:43:14.385Z,11.70
2019-05-07T15:53:27.668Z,12.98
2019-05-07T16:03:33.870Z,13.90
2019-05-07T16:13:41.983Z,12.77
2019-05-07T16:35:05.675Z,12.87
2019-05-07T16:45:10.108Z,11.33
2019-05-07T16:55:15.045Z,13.40
2019-05-07T17:05:23.328Z,14.43
2019-05-07T17:15:28.003Z,13.47
2019-05-07T17:25:38.370Z,10.17
2019-05-07T17:35:42.979Z,11.20
2019-05-07T17:45:47.851Z,18.60
2019-05-07T17:55:52.976Z,16.17
2019-05-07T18:05:57.504Z,17.57
2019-05-07T18:16:03.818Z,22.30
2019-05-07T18:26:09.336Z,15.60
2019-05-07T18:36:13.999Z,15.97
2019-05-07T18:46:18.627Z,37.23
2019-05-07T18:56:23.292Z,22.63
2019-05-07T19:06:27.888Z,26.03
2019-05-07T19:16:32.475Z,26.77
2019-05-07T19:26:37.065Z,52.50
2019-05-07T19:36:42.616Z,69.27
2019-05-07T19:46:48.167Z,64.00
2019-05-07T19:56:52.763Z,80.47
2019-05-07T20:06:59.069Z,85.87
2019-05-07T20:17:03.849Z,49.17
2019-05-07T20:27:08.461Z,34.03
2019-05-07T20:37:13.060Z,39.90
2019-05-07T20:47:17.868Z,40.13
2019-05-07T20:57:23.974Z,39.50
2019-05-07T21:07:28.530Z,40.73
2019-05-07T21:17:33.108Z,44.50
2019-05-07T21:27:37.612Z,43.53
2019-05-07T21:37:42.108Z,49.80
2019-05-07T21:47:46.641Z,51.00
2019-05-07T21:58:08.829Z,53.40
2019-05-07T22:08:13.763Z,58.30
2019-05-07T22:18:18.356Z,52.93
2019-05-07T22:28:24.866Z,68.40
2019-05-07T22:38:29.390Z,53.73
2019-05-07T22:48:35.789Z,58.53
2019-05-07T22:58:44.442Z,52.67
2019-05-07T23:08:48.907Z,57.83
2019-05-07T23:18:53.340Z,50.97
2019-05-07T23:28:57.822Z,47.37
2019-05-07T23:39:05.115Z,45.63
2019-05-07T23:49:09.844Z,47.13
2019-05-07T23:59:16.194Z,43.70
